Reklama
Líbí se Vám tento web? Budeme velmi rádi, pokud přidáte hodnocení +1

Seznam meteostanic a jejich METAR

Vyhledat místa podle abecedy:
A B C D E F G H I J K L M N O P Q R S T U V W X Y Z

Filtrovat:

ID stanice:
a/nebo
Název místa (fulltext):
 
Místo (ID)Naposledy načteno 
Brussels (EBBR) 21.06.2018 01:50 UTC Zobrazit METAR
EBBR 210150Z 26008KT CAVOK 16/14 Q1017 NOSIG
Bucharest (LRBS) 20.06.2018 21:00 UTC Zobrazit METAR
LRBS 202100Z VRB01KT CAVOK 23/17 Q1019 NOSIG
Budapest (LHBP) 21.06.2018 02:00 UTC Zobrazit METAR
LHBP 210200Z VRB01KT CAVOK 19/18 Q1017 NOSIG
Buenos Aires (SABE) 21.06.2018 02:00 UTC Zobrazit METAR
SABE 210200Z VRB02KT CAVOK 16/14 Q1010 NOSIG
Bujumbura (HBBA) 20.06.2018 08:00 UTC Zobrazit METAR
HBBA 200800Z 00000KT 7000 FEW025 BKN100 27/18 Q1017 NOSIG
Burgas (LBBG) 21.06.2018 02:00 UTC Zobrazit METAR
LBBG 210200Z 25003KT CAVOK 15/12 Q1016 NOSIG
Bydgoszcz (EPBY) 21.06.2018 02:00 UTC Zobrazit METAR
EPBY 210200Z 17006KT CAVOK 19/12 Q1013
Cairo (HECA) 21.06.2018 02:00 UTC Zobrazit METAR
HECA 210200Z 05006KT CAVOK 26/19 Q1014 NOSIG
Canberra (YSCB) 21.06.2018 01:00 UTC Zobrazit METAR
YSCB 210100Z 29005KT CAVOK 06/02 Q1029 NOSIG
Caracas (SVMP) Zatím nenačteno  
Cayenne (SOCA) 21.06.2018 02:00 UTC Zobrazit METAR
SOCA 210200Z AUTO 00000KT 9999 FEW030 BKN043 BKN064 24/24 Q1016 TEMPO 3000 SHRA FEW012TCU
Charlotte Amalie (TIST) 21.06.2018 01:53 UTC Zobrazit METAR
TIST 210153Z AUTO 12011KT 10SM CLR 28/23 A3006 RMK AO2 SLP180 T02780233
Chisinau (LUKK) 21.06.2018 02:00 UTC Zobrazit METAR
LUKK 210200Z VRB02KT CAVOK 19/16 Q1018 R26/CLRD// NOSIG
Colombo (VCBI) 21.06.2018 01:10 UTC Zobrazit METAR
VCBI 210110Z 17005KT 150V210 9000 SCT018 24/23 Q1010 NOSIG
Conakry (GUCY) 20.06.2018 23:00 UTC Zobrazit METAR
GUCY 202300Z 00000KT 9999 SCT015 BKN110 27/23 Q1016 NOSIG
Constanta (LRCK) 21.06.2018 02:00 UTC Zobrazit METAR
LRCK 210200Z 34003KT 310V010 CAVOK 21/14 Q1017 NOSIG
Constantine (DABC) 21.06.2018 02:00 UTC Zobrazit METAR
DABC 210200Z 13002KT 9999 SCT026 16/12 Q1019
Copenhagen (EKCH) 21.06.2018 01:50 UTC Zobrazit METAR
EKCH 210150Z 23012KT 9999 -RA FEW018 BKN090 17/15 Q1009 NOSIG
Cork (EICK) 21.06.2018 02:00 UTC Zobrazit METAR
EICK 210200Z 30007KT 9999 FEW022 SCT040 09/07 Q1028 NOSIG
Cotonou (DBBB) 20.06.2018 16:00 UTC Zobrazit METAR
DBBB 201600Z 23016KT 9999 SCT013 28/24 Q1012 NOSIG
Curacao Island (TNCC) 21.06.2018 02:00 UTC Zobrazit METAR
TNCC 210200Z 11013KT CAVOK 27/23 Q1014 NOSIG
Dakar (GOOY) 21.06.2018 01:00 UTC Zobrazit METAR
GOOY 210100Z 28010KT 8000 BKN013 24/21 Q1015
Damascus (OSDI) 21.06.2018 02:00 UTC Zobrazit METAR
OSDI 210200Z 22012KT CAVOK 18/14 Q1015
Debrecen (LHDC) 20.06.2018 22:45 UTC Zobrazit METAR
LHDC 202245Z 05002KT CAVOK 21/16 Q1019
Delhi (VIDP) 20.06.2018 23:00 UTC Zobrazit METAR
VIDP 202300Z 00000KT 2500 HZ SCT040 BKN100 33/20 Q1001 NOSIG
Dhaka (VGZR) Zatím nenačteno  
Diego Garcia (FJDG) 21.06.2018 00:55 UTC Zobrazit METAR
FJDG 210055Z 15008KT 9999 BR SCT015 BKN040 BKN080 25/25 A2990 RMK SLP122 P0001 T02490246
Djibouti (HDAM) 20.06.2018 09:00 UTC Zobrazit METAR
HDAM 200900Z 08007KT 8000 HZ FEW023 37/22 Q1006
Dnipropetrovs'k (UKDD) 12.08.2013 14:00 UTC Zobrazit METAR
UKDD 121400Z CAVOK 33/13 Q1012 08090070 NOSIG
Dodoma (HTDO) 20.06.2018 10:00 UTC Zobrazit METAR
HTDO 201000Z 10010KT 9999 SCT043 26/12 Q1021 NOSIG
Doha (OTBD) 21.06.2018 02:00 UTC Zobrazit METAR
OTBD 210200Z AUTO 32012KT CAVOK 34/19 Q1001 NOSIG
Dortmund (EDLW) 21.06.2018 01:50 UTC Zobrazit METAR
EDLW 210150Z AUTO 22007KT 9999 // FEW039/// 16/14 Q1015
Dresden (EDDC) 21.06.2018 01:50 UTC Zobrazit METAR
EDDC 210150Z 25005KT CAVOK 20/13 Q1015
Dublin (EIDW) 21.06.2018 02:00 UTC Zobrazit METAR
EIDW 210200Z 27010KT 9999 FEW025 07/06 Q1026 NOSIG
Dubrovnik (LDDU) 21.06.2018 02:00 UTC Zobrazit METAR
LDDU 210200Z 10007KT CAVOK 22/14 Q1017 NOSIG
Dushanbe (UTDD) Zatím nenačteno  
Dusseldorf (EDDL) 21.06.2018 01:50 UTC Zobrazit METAR
EDDL 210150Z 22004KT CAVOK 15/13 Q1015 NOSIG
Dzaoudzi (FMCZ) 21.06.2018 02:00 UTC Zobrazit METAR
FMCZ 210200Z AUTO 18009KT 9999 BKN021 BKN027 OVC160 26/23 Q1017 NOSIG
Edinburgh (EGPH) 21.06.2018 01:50 UTC Zobrazit METAR
EGPH 210150Z 26005KT CAVOK 07/05 Q1019
Eindhoven (EHEH) 21.06.2018 01:55 UTC Zobrazit METAR
EHEH 210155Z AUTO 21006KT 190V250 9999 OVC360 16/14 Q1015 BLU
Entebbe (HUEN) 14.06.2018 11:00 UTC Zobrazit METAR
HUEN 141100Z 23005KT 9999 SCT020 28/18 Q1019
Esbjerg (EKEB) 22.05.2018 07:50 UTC Zobrazit METAR
EKEB 220750Z 08008KT CAVOK 18/07 Q1018
Faro (LPFR) 21.06.2018 02:00 UTC Zobrazit METAR
LPFR 210200Z 03006KT CAVOK 21/18 Q1015
Florence (LIRQ) 21.06.2018 01:50 UTC Zobrazit METAR
LIRQ 210150Z VRB01KT CAVOK 19/15 Q1017
Foggia, Gino Lisa (LIBF) 20.06.2018 15:50 UTC Zobrazit METAR
LIBF 201550Z 10009KT 9999 FEW040 27/16 Q1017
Fort de France (TFFF) 21.06.2018 02:00 UTC Zobrazit METAR
TFFF 210200Z AUTO 09008KT 060V120 9999 FEW028 26/21 Q1017
Frankfurt/ Main (EDDF) 21.06.2018 01:50 UTC Zobrazit METAR
EDDF 210150Z 23004KT CAVOK 18/14 Q1015 NOSIG
Freetown (GFLL) 18.06.2018 12:00 UTC Zobrazit METAR
GFLL 181200Z 26008KT 9999 BKN012 27/19 Q1016 RMK CB/NE
Funafuti (NGFU) 20.06.2018 19:00 UTC Zobrazit METAR
NGFU 201900Z 10004KT 9999 FEW019 28/25 Q1011
Gaborone (FBSK) 20.06.2018 23:00 UTC Zobrazit METAR
FBSK 202300Z 11006KT CAVOK 10/01 Q1026 NOSIG
Předchozí 1 2 3 4 5 ... 9 Další
Reklama

Počasí na Váš email

Emaily jsou bez reklamy a bez spamu



Odhlásit newsletter

Reklama


Lunární kalendář

  • 28.06.
  • 06.07.
  • 13.07.
  • 19.07.



Slunečno.cz na Google+

Reklama


Reklama
Povinné ručení
Reklama




Reklama